createdAt,value
2023-02-07T00:04:58.002Z,-0.58
2023-02-07T00:09:59.779Z,-0.54
2023-02-07T00:15:01.314Z,-0.52
2023-02-07T00:20:04.252Z,-0.48
2023-02-07T00:25:06.330Z,-0.46
2023-02-07T00:30:09.029Z,-0.42
2023-02-07T00:35:10.699Z,-0.39
2023-02-07T00:40:12.333Z,-0.35
2023-02-07T00:45:14.042Z,-0.34
2023-02-07T00:50:16.227Z,-0.32
2023-02-07T00:55:17.999Z,-0.31
2023-02-07T01:00:19.774Z,-0.29
2023-02-07T01:05:21.458Z,-0.28
2023-02-07T01:10:24.453Z,-0.27
2023-02-07T01:15:26.233Z,-0.26
2023-02-07T01:20:28.564Z,-0.25
2023-02-07T01:25:30.291Z,-0.25
2023-02-07T01:30:32.457Z,-0.25
2023-02-07T01:35:34.554Z,-0.24
2023-02-07T01:40:37.559Z,-0.25
2023-02-07T01:45:39.945Z,-0.25
2023-02-07T01:50:43.237Z,-0.25
2023-02-07T01:55:45.748Z,-0.25
2023-02-07T02:00:47.725Z,-0.25
2023-02-07T02:05:53.796Z,-0.25
2023-02-07T02:10:55.261Z,-0.25
2023-02-07T02:16:16.996Z,-0.26
2023-02-07T02:21:31.071Z,-0.25
2023-02-07T02:26:41.965Z,-0.25
2023-02-07T02:32:02.880Z,-0.25
2023-02-07T02:37:10.809Z,-0.25
2023-02-07T02:42:15.751Z,-0.25
2023-02-07T02:47:18.451Z,-0.25
2023-02-07T02:52:20.322Z,-0.26
2023-02-07T02:57:28.445Z,-0.26
2023-02-07T03:02:38.412Z,-0.26
2023-02-07T03:07:40.085Z,-0.27
2023-02-07T03:12:51.592Z,-0.27
2023-02-07T03:18:09.541Z,-0.27
2023-02-07T03:23:12.032Z,-0.28
2023-02-07T03:28:15.494Z,-0.28
2023-02-07T03:33:19.035Z,-0.29
2023-02-07T03:38:21.137Z,-0.29
2023-02-07T03:43:24.775Z,-0.30
2023-02-07T03:48:26.322Z,-0.31
2023-02-07T03:53:27.894Z,-0.32
2023-02-07T03:58:29.469Z,-0.33
2023-02-07T04:03:31.041Z,-0.34
2023-02-07T04:08:33.119Z,-0.35
2023-02-07T04:13:34.906Z,-0.35
2023-02-07T04:18:36.531Z,-0.37
2023-02-07T04:23:38.134Z,-0.38
2023-02-07T04:28:39.702Z,-0.39
2023-02-07T04:33:41.782Z,-0.40
2023-02-07T04:38:43.452Z,-0.41
2023-02-07T04:43:44.958Z,-0.42
2023-02-07T04:48:48.126Z,-0.42
2023-02-07T04:53:49.696Z,-0.42
2023-02-07T04:58:51.163Z,-0.42
2023-02-07T05:03:52.747Z,-0.42
2023-02-07T05:08:54.306Z,-0.42
2023-02-07T05:13:55.872Z,-0.43
2023-02-07T05:18:57.652Z,-0.43
2023-02-07T05:23:59.323Z,-0.45
2023-02-07T05:29:00.899Z,-0.45
2023-02-07T05:34:02.978Z,-0.46
2023-02-07T05:39:04.744Z,-0.46
2023-02-07T05:44:06.725Z,-0.47
2023-02-07T05:49:08.496Z,-0.47
2023-02-07T05:54:10.092Z,-0.48
2023-02-07T05:59:11.630Z,-0.48
2023-02-07T06:04:13.198Z,-0.50
2023-02-07T06:09:15.180Z,-0.49
2023-02-07T06:14:17.160Z,-0.50
2023-02-07T06:19:18.725Z,-0.50
2023-02-07T06:24:21.935Z,-0.48
2023-02-07T06:29:23.608Z,-0.47
2023-02-07T06:34:25.793Z,-0.44
2023-02-07T06:39:27.361Z,-0.40
2023-02-07T06:44:28.993Z,-0.35
2023-02-07T06:49:31.115Z,-0.32
2023-02-07T06:54:33.103Z,-0.31
2023-02-07T06:59:35.483Z,-0.28
2023-02-07T07:04:37.260Z,-0.23
2023-02-07T07:09:40.162Z,-0.13
2023-02-07T07:14:41.732Z,0.01
2023-02-07T07:19:43.610Z,0.17
2023-02-07T07:24:45.489Z,0.33
2023-02-07T07:29:47.077Z,0.50
2023-02-07T07:34:49.961Z,0.70
2023-02-07T07:39:51.527Z,0.92
2023-02-07T07:44:53.298Z,1.19
2023-02-07T07:49:55.376Z,1.48
2023-02-07T07:54:56.861Z,1.80
2023-02-07T07:59:58.719Z,2.13
2023-02-07T08:05:00.393Z,2.56
2023-02-07T08:10:07.090Z,3.13
2023-02-07T08:15:10.188Z,4.09
2023-02-07T08:20:12.734Z,4.75
2023-02-07T08:25:15.684Z,5.23
2023-02-07T08:30:18.688Z,5.57
2023-02-07T08:35:21.071Z,5.85
2023-02-07T08:40:25.393Z,6.36
2023-02-07T08:45:28.619Z,8.11
2023-02-07T08:50:31.006Z,8.38
2023-02-07T08:55:33.085Z,8.05
2023-02-07T09:00:35.781Z,7.44
2023-02-07T09:05:39.306Z,7.27
2023-02-07T09:10:41.810Z,7.61
2023-02-07T09:15:44.992Z,7.72
2023-02-07T09:20:47.587Z,7.17
2023-02-07T09:25:50.594Z,6.60
2023-02-07T09:30:52.974Z,6.10
2023-02-07T09:35:55.472Z,5.79
2023-02-07T09:40:59.400Z,5.69
2023-02-07T09:46:04.328Z,5.71
2023-02-07T09:51:08.987Z,5.94
2023-02-07T09:56:10.863Z,6.14
2023-02-07T10:01:17.507Z,6.20
2023-02-07T10:06:26.890Z,6.02
2023-02-07T10:11:28.955Z,5.80
2023-02-07T10:16:33.757Z,5.67
2023-02-07T10:21:50.650Z,5.54
2023-02-07T10:27:12.310Z,5.48
2023-02-07T10:32:17.748Z,5.47
2023-02-07T10:37:20.963Z,5.49
2023-02-07T10:42:23.552Z,5.52
2023-02-07T10:47:27.390Z,5.47
2023-02-07T10:52:35.090Z,5.54
2023-02-07T10:57:37.610Z,5.63
2023-02-07T11:02:48.841Z,5.64
2023-02-07T11:07:57.921Z,5.57
2023-02-07T11:13:01.141Z,5.49
2023-02-07T11:18:04.541Z,5.40
2023-02-07T11:23:15.960Z,5.36
2023-02-07T11:28:26.522Z,5.40
2023-02-07T11:33:29.125Z,5.30
2023-02-07T11:38:30.791Z,5.15
2023-02-07T11:43:33.892Z,5.04
2023-02-07T11:48:37.436Z,4.86
2023-02-07T11:53:41.865Z,4.68
2023-02-07T11:58:49.158Z,4.53
2023-02-07T12:03:58.924Z,4.44
2023-02-07T12:09:01.812Z,4.48
2023-02-07T12:14:11.896Z,4.59
2023-02-07T12:19:28.609Z,4.68
2023-02-07T12:24:43.190Z,4.66
2023-02-07T12:30:05.031Z,4.58
2023-02-07T12:35:18.196Z,4.52
2023-02-07T12:40:46.270Z,4.43
2023-02-07T12:46:00.592Z,4.47
2023-02-07T12:51:15.410Z,4.57
2023-02-07T12:56:26.200Z,4.67
2023-02-07T13:01:51.197Z,4.73
2023-02-07T13:06:59.021Z,4.80
2023-02-07T13:12:20.965Z,4.82
2023-02-07T13:17:35.943Z,4.71
2023-02-07T13:22:50.831Z,4.57
2023-02-07T13:27:54.263Z,4.43
2023-02-07T13:32:59.290Z,4.32
2023-02-07T13:38:12.123Z,4.18
2023-02-07T13:43:18.515Z,3.97
2023-02-07T13:48:36.052Z,3.79
2023-02-07T13:53:46.121Z,3.61
2023-02-07T13:59:06.532Z,3.46
2023-02-07T14:04:10.979Z,3.31
2023-02-07T14:09:23.701Z,3.24
2023-02-07T14:14:25.282Z,3.18
2023-02-07T14:19:39.437Z,3.13
2023-02-07T14:24:49.619Z,3.04
2023-02-07T14:29:53.421Z,2.91
2023-02-07T14:50:30.958Z,2.25
2023-02-07T14:55:46.259Z,2.14
2023-02-07T15:00:54.962Z,1.98
2023-02-07T15:06:03.499Z,1.82
2023-02-07T15:11:12.025Z,1.66
2023-02-07T15:16:19.991Z,1.56
2023-02-07T15:21:40.048Z,1.46
2023-02-07T15:26:51.203Z,1.33
2023-02-07T15:31:55.498Z,1.21
2023-02-07T15:37:14.605Z,1.09
2023-02-07T15:42:19.893Z,0.98
2023-02-07T15:47:29.370Z,0.88
2023-02-07T15:52:39.001Z,0.79
2023-02-07T15:57:44.459Z,0.70
2023-02-07T16:02:57.214Z,0.58
2023-02-07T16:08:02.067Z,0.45
2023-02-07T16:13:19.615Z,0.30
2023-02-07T16:18:47.088Z,0.14
2023-02-07T16:23:54.626Z,0.00
2023-02-07T16:28:58.681Z,-0.12
2023-02-07T16:34:02.924Z,-0.23
2023-02-07T16:39:09.971Z,-0.34
2023-02-07T16:44:18.583Z,-0.42
2023-02-07T16:49:25.889Z,-0.47
2023-02-07T16:54:29.920Z,-0.50
2023-02-07T16:59:33.330Z,-0.50
2023-02-07T17:04:37.357Z,-0.51
2023-02-07T17:09:40.772Z,-0.51
2023-02-07T17:14:44.794Z,-0.51
2023-02-07T17:19:50.465Z,-0.52
2023-02-07T17:24:54.179Z,-0.53
2023-02-07T17:29:57.697Z,-0.58
2023-02-07T17:35:01.525Z,-0.65
2023-02-07T17:40:19.877Z,-0.72
2023-02-07T17:45:28.064Z,-0.79
2023-02-07T17:50:36.018Z,-0.86
2023-02-07T17:55:39.738Z,-0.90
2023-02-07T18:00:43.572Z,-0.94
2023-02-07T18:05:48.818Z,-0.96
2023-02-07T18:10:52.028Z,-1.00
2023-02-07T18:15:55.352Z,-1.08
2023-02-07T18:20:58.960Z,-1.16
2023-02-07T18:26:02.772Z,-1.24
2023-02-07T18:31:14.645Z,-1.31
2023-02-07T18:36:21.692Z,-1.33
2023-02-07T18:41:26.849Z,-1.31
2023-02-07T18:46:32.508Z,-1.28
2023-02-07T18:51:36.432Z,-1.26
2023-02-07T18:56:42.203Z,-1.23
2023-02-07T19:01:48.506Z,-1.20
2023-02-07T19:06:52.690Z,-1.17
2023-02-07T19:12:00.033Z,-1.13
2023-02-07T19:17:03.538Z,-1.10
2023-02-07T19:22:06.852Z,-1.08
2023-02-07T19:27:10.369Z,-1.05
2023-02-07T19:32:14.571Z,-1.03
2023-02-07T19:37:19.341Z,-1.02
2023-02-07T19:42:25.944Z,-1.02
2023-02-07T19:47:29.544Z,-1.04
2023-02-07T19:52:33.675Z,-1.04
2023-02-07T19:57:37.193Z,-1.03
2023-02-07T20:02:40.600Z,-1.01
2023-02-07T20:07:45.241Z,-1.01
2023-02-07T20:12:49.533Z,-1.00
2023-02-07T20:17:54.434Z,-1.01
2023-02-07T20:22:57.741Z,-1.00
2023-02-07T20:28:01.381Z,-0.99
2023-02-07T20:33:04.673Z,-0.97
2023-02-07T20:38:08.184Z,-1.00
2023-02-07T20:43:11.497Z,-1.06
2023-02-07T20:48:16.770Z,-1.14
2023-02-07T20:53:19.965Z,-1.24
2023-02-07T20:58:23.133Z,-1.34
2023-02-07T21:03:26.700Z,-1.39
2023-02-07T21:08:30.829Z,-1.41
2023-02-07T21:13:35.567Z,-1.40
2023-02-07T21:18:38.667Z,-1.37
2023-02-07T21:23:42.897Z,-1.33
2023-02-07T21:28:47.440Z,-1.29
2023-02-07T21:33:51.562Z,-1.23
2023-02-07T21:38:56.631Z,-1.18
2023-02-07T21:44:00.657Z,-1.13
2023-02-07T21:49:10.915Z,-1.08
2023-02-07T21:54:14.025Z,-1.03
2023-02-07T21:59:19.690Z,-1.00
2023-02-07T22:04:22.793Z,-0.95
2023-02-07T22:09:26.063Z,-0.91
2023-02-07T22:14:30.345Z,-0.89
2023-02-07T22:19:33.958Z,-0.85
2023-02-07T22:24:37.061Z,-0.81
2023-02-07T22:29:40.469Z,-0.75
2023-02-07T22:34:46.245Z,-0.68
2023-02-07T22:39:50.263Z,-0.62
2023-02-07T22:44:53.371Z,-0.58
2023-02-07T22:49:56.476Z,-0.54
2023-02-07T22:54:59.584Z,-0.51
2023-02-07T23:00:07.813Z,-0.49
2023-02-07T23:05:11.481Z,-0.46
2023-02-07T23:10:15.649Z,-0.43
2023-02-07T23:15:18.864Z,-0.42
2023-02-07T23:20:21.970Z,-0.42
2023-02-07T23:25:25.700Z,-0.44
2023-02-07T23:30:28.934Z,-0.45
2023-02-07T23:35:34.563Z,-0.46
2023-02-07T23:40:38.122Z,-0.47
2023-02-07T23:45:41.395Z,-0.48
2023-02-07T23:50:44.600Z,-0.48
2023-02-07T23:55:49.664Z,-0.48
